Time;durP1;ratioP1;P1;durP2;ratioP2;P2;SDS_P1;SDS_P2;PMS_P1;PMS_P2;Temp;Humidity;BMP_temperature;BMP_pressure;BME280_temperature;BME280_humidity;BME280_pressure;Samples;Min_cycle;Max_cycle;Signal;HPM_P1;HPM_P2
2022/03/24 00:00:47;;;;;;;50.67;35.33;;;;;;;8.36;100.00;103116.44;5060067;28;20048;-33
2022/03/24 00:03:15;;;;;;;48.65;33.45;;;;;;;8.33;100.00;103116.91;5065001;28;20048;-35
2022/03/24 00:05:44;;;;;;;51.47;34.20;;;;;;;8.30;100.00;103120.97;5060016;28;20079;-33
2022/03/24 00:08:12;;;;;;;50.70;34.13;;;;;;;8.24;100.00;103113.50;5065110;28;20386;-28
2022/03/24 00:10:40;;;;;;;52.03;34.50;;;;;;;8.20;100.00;103106.69;5061109;28;20043;-33
2022/03/24 00:13:10;;;;;;;51.97;34.42;;;;;;;8.17;100.00;103113.59;5063514;28;20044;-29
2022/03/24 00:15:38;;;;;;;58.33;38.63;;;;;;;8.12;100.00;103110.66;5062592;28;20040;-34
2022/03/24 00:18:07;;;;;;;46.78;32.20;;;;;;;8.08;100.00;103108.53;5064117;28;20504;-28
2022/03/24 00:20:35;;;;;;;52.83;35.25;;;;;;;8.04;100.00;103110.06;5063312;28;20397;-35
2022/03/24 00:23:03;;;;;;;51.72;35.92;;;;;;;8.01;100.00;103111.38;5046017;28;20520;-38
2022/03/24 00:25:31;;;;;;;48.88;34.47;;;;;;;7.99;100.00;103109.91;5062390;28;20061;-34
2022/03/24 00:27:59;;;;;;;46.40;31.55;;;;;;;7.97;100.00;103103.72;5062856;28;20055;-32
2022/03/24 00:30:28;;;;;;;48.65;32.47;;;;;;;7.95;100.00;103098.41;5043419;28;20060;-30
2022/03/24 00:32:55;;;;;;;54.25;34.10;;;;;;;7.91;100.00;103109.09;5061456;28;20509;-31
2022/03/24 00:35:26;;;;;;;51.28;34.83;;;;;;;7.88;100.00;103104.00;5024822;28;1053453;-33
2022/03/24 00:37:54;;;;;;;43.78;30.38;;;;;;;7.86;100.00;103103.38;5062758;28;20052;-32
2022/03/24 00:40:21;;;;;;;49.63;32.92;;;;;;;7.83;100.00;103100.19;5055575;28;20055;-37
2022/03/24 00:42:50;;;;;;;50.60;34.85;;;;;;;7.80;100.00;103107.03;5059624;28;20135;-30
2022/03/24 00:45:19;;;;;;;51.90;35.75;;;;;;;7.77;100.00;103104.75;5057753;28;20049;-34
2022/03/24 00:47:48;;;;;;;48.05;32.38;;;;;;;7.75;100.00;103098.56;5062421;28;20556;-33
2022/03/24 00:50:16;;;;;;;41.97;28.17;;;;;;;7.72;100.00;103099.00;5058378;28;20417;-37
2022/03/24 00:52:45;;;;;;;40.90;27.08;;;;;;;7.68;100.00;103094.97;5062763;28;20051;-32
2022/03/24 00:55:15;;;;;;;40.80;27.92;;;;;;;7.67;100.00;103095.19;5056493;28;20053;-31
2022/03/24 00:57:45;;;;;;;46.03;31.35;;;;;;;7.64;100.00;103093.72;5062474;28;20384;-30
2022/03/24 01:00:15;;;;;;;50.78;34.78;;;;;;;7.62;100.00;103095.84;5040078;28;20059;-30
2022/03/24 01:02:44;;;;;;;48.92;32.10;;;;;;;7.59;100.00;103099.94;5061929;28;20040;-35
2022/03/24 01:05:15;;;;;;;45.08;30.13;;;;;;;7.57;100.00;103093.78;5040299;28;20139;-30
2022/03/24 01:07:44;;;;;;;37.83;25.00;;;;;;;7.55;100.00;103087.59;5062185;28;20036;-26
2022/03/24 01:10:15;;;;;;;49.88;33.20;;;;;;;7.55;100.00;103089.53;5057564;28;20529;-32
2022/03/24 01:12:45;;;;;;;46.13;30.23;;;;;;;7.50;100.00;103089.34;5045904;28;20406;-30
2022/03/24 01:15:16;;;;;;;40.58;27.30;;;;;;;7.46;100.00;103088.06;5057871;28;20056;-29
2022/03/24 01:17:44;;;;;;;38.75;26.85;;;;;;;7.42;100.00;103081.25;5060090;28;20041;-33
2022/03/24 01:20:16;;;;;;;39.35;26.45;;;;;;;7.38;100.00;103080.88;5040650;28;20052;-31
2022/03/24 01:22:44;;;;;;;;;;;;;;;7.30;100.00;103081.13;5059442;28;20040;-29
2022/03/24 01:25:11;;;;;;;32.70;22.05;;;;;;;7.21;100.00;103079.66;5057083;28;20377;-30
2022/03/24 01:27:39;;;;;;;39.47;26.60;;;;;;;7.20;100.00;103077.97;5042261;28;20041;-29
2022/03/24 01:30:09;;;;;;;34.97;23.38;;;;;;;7.17;100.00;103079.28;5039252;28;20139;-27
2022/03/24 01:32:41;;;;;;;37.53;24.70;;;;;;;7.14;100.00;103068.63;5062605;28;20052;-34
2022/03/24 01:35:10;;;;;;;37.38;24.90;;;;;;;7.11;100.00;103080.16;5045653;28;20057;-30
2022/03/24 01:37:40;;;;;;;40.50;26.70;;;;;;;7.07;100.00;103072.50;5058208;28;20045;-31
2022/03/24 01:40:10;;;;;;;36.40;24.33;;;;;;;7.04;100.00;103075.72;5058656;28;20072;-34
2022/03/24 01:42:43;;;;;;;40.75;27.00;;;;;;;6.99;100.00;103073.63;5058437;28;20436;-33
2022/03/24 01:45:11;;;;;;;40.58;27.13;;;;;;;6.96;100.00;103068.50;5040083;28;20045;-29
2022/03/24 01:47:39;;;;;;;35.70;24.30;;;;;;;6.93;100.00;103068.94;5063744;28;20063;-30
2022/03/24 01:50:09;;;;;;;39.60;27.35;;;;;;;6.90;100.00;103067.47;5061680;28;20051;-31
2022/03/24 01:52:39;;;;;;;40.20;26.15;;;;;;;6.86;100.00;103062.56;5046017;28;20048;-29
2022/03/24 01:55:09;;;;;;;39.40;26.67;;;;;;;6.83;100.00;103066.63;5060317;28;20075;-27
2022/03/24 01:57:37;;;;;;;41.13;27.50;;;;;;;6.80;100.00;103067.06;5045798;28;20072;-29
2022/03/24 02:00:08;;;;;;;39.15;25.33;;;;;;;6.79;100.00;103064.53;5041432;28;20047;-29
2022/03/24 02:02:44;;;;;;;44.83;29.65;;;;;;;6.76;100.00;103068.59;5064207;28;20055;-27
2022/03/24 02:05:12;;;;;;;38.38;26.25;;;;;;;6.75;100.00;103058.56;5059364;28;20542;-34
2022/03/24 02:07:43;;;;;;;44.75;29.83;;;;;;;6.72;100.00;103061.78;5046486;28;20136;-30
2022/03/24 02:10:12;;;;;;;57.88;37.50;;;;;;;6.73;100.00;103062.63;5041745;28;20044;-29
2022/03/24 02:12:42;;;;;;;52.78;34.53;;;;;;;6.72;100.00;103059.00;5045462;28;20064;-32
2022/03/24 02:15:11;;;;;;;65.97;41.95;;;;;;;6.75;100.00;103057.72;5041856;28;20494;-32
2022/03/24 02:17:41;;;;;;;53.85;35.70;;;;;;;6.77;100.00;103056.44;5064342;28;20086;-28
2022/03/24 02:20:10;;;;;;;60.28;38.20;;;;;;;6.80;100.00;103057.88;5041194;28;20045;-31
2022/03/24 02:22:39;;;;;;;50.47;33.75;;;;;;;6.79;100.00;103051.53;5045975;28;20513;-31
2022/03/24 02:25:09;;;;;;;51.08;31.92;;;;;;;6.79;100.00;103051.53;5060372;28;20037;-31
2022/03/24 02:27:38;;;;;;;59.47;38.72;;;;;;;6.80;100.00;103044.88;5052586;28;20041;-29
2022/03/24 02:30:08;;;;;;;55.38;36.55;;;;;;;6.83;100.00;103044.44;5044115;28;20052;-33
2022/03/24 02:32:36;;;;;;;49.25;32.35;;;;;;;6.87;100.00;103044.84;5062896;28;20059;-33
2022/03/24 02:35:05;;;;;;;60.70;39.03;;;;;;;6.88;100.00;103049.31;5062203;28;20047;-28
2022/03/24 02:37:33;;;;;;;54.17;35.08;;;;;;;6.89;100.00;103046.34;5065761;28;21393;-29
2022/03/24 02:40:03;;;;;;;60.40;37.13;;;;;;;6.89;100.00;103043.56;5065354;28;20044;-30
2022/03/24 02:42:32;;;;;;;73.07;43.50;;;;;;;6.92;100.00;103045.03;5066722;28;20076;-29
2022/03/24 02:45:02;;;;;;;64.53;42.08;;;;;;;6.94;100.00;103044.81;5065489;28;20048;-29
2022/03/24 02:47:30;;;;;;;60.38;38.63;;;;;;;6.92;100.00;103045.03;5065816;28;20064;-31
2022/03/24 02:49:59;;;;;;;44.80;29.90;;;;;;;6.91;100.00;103040.56;5061564;28;20454;-33
2022/03/24 02:52:28;;;;;;;49.50;32.55;;;;;;;6.91;100.00;103043.34;5061469;28;20095;-25
2022/03/24 02:54:56;;;;;;;50.25;31.58;;;;;;;6.90;100.00;103044.41;5061007;28;20048;-26
2022/03/24 02:57:25;;;;;;;54.58;35.17;;;;;;;6.89;100.00;103031.59;5063293;28;20076;-32
2022/03/24 02:59:53;;;;;;;56.60;36.95;;;;;;;6.87;100.00;103040.16;5060192;28;20060;-31
2022/03/24 03:02:21;;;;;;;65.63;40.92;;;;;;;6.86;100.00;103037.59;5062072;28;20059;-30
2022/03/24 03:04:51;;;;;;;63.88;40.92;;;;;;;6.85;100.00;103038.66;5067205;28;20080;-30
2022/03/24 03:07:20;;;;;;;61.22;39.90;;;;;;;6.84;100.00;103039.72;5062528;28;20131;-33
2022/03/24 03:09:48;;;;;;;45.83;29.10;;;;;;;6.83;100.00;103038.03;5066449;28;20136;-33
2022/03/24 03:12:17;;;;;;;60.92;38.38;;;;;;;6.82;100.00;103033.56;5062648;28;20049;-28
2022/03/24 03:14:47;;;;;;;60.47;38.85;;;;;;;6.80;100.00;103032.91;5066379;28;20060;-33
2022/03/24 03:17:16;;;;;;;55.08;35.13;;;;;;;6.77;100.00;103033.38;5061996;28;20045;-32
2022/03/24 03:19:45;;;;;;;60.40;37.97;;;;;;;6.75;100.00;103035.53;5067048;28;20052;-34
2022/03/24 03:22:13;;;;;;;62.60;40.20;;;;;;;6.74;100.00;103037.44;5061930;28;20524;-31
2022/03/24 03:24:41;;;;;;;74.43;45.13;;;;;;;6.74;100.00;103031.06;5066188;28;20057;-30
2022/03/24 03:27:09;;;;;;;68.35;42.38;;;;;;;6.74;100.00;103029.13;5063190;28;20045;-30
2022/03/24 03:29:37;;;;;;;76.78;46.67;;;;;;;6.73;100.00;103029.34;5065358;28;20053;-31
2022/03/24 03:32:08;;;;;;;48.75;31.33;;;;;;;6.73;100.00;103037.66;5065317;28;20048;-30
2022/03/24 03:34:36;;;;;;;48.97;29.52;;;;;;;6.69;100.00;103037.25;5065612;28;20052;-29
2022/03/24 03:37:04;;;;;;;42.42;27.77;;;;;;;6.67;100.00;103035.75;5042904;28;20057;-26
2022/03/24 03:39:32;;;;;;;55.60;35.03;;;;;;;6.63;100.00;103034.50;5045949;28;20037;-30
2022/03/24 03:42:00;;;;;;;51.95;33.63;;;;;;;6.61;100.00;103042.19;5044226;28;20141;-28
2022/03/24 03:44:28;;;;;;;46.80;28.05;;;;;;;6.57;100.00;103037.09;5045025;28;20089;-38
2022/03/24 03:46:56;;;;;;;44.72;27.83;;;;;;;6.55;100.00;103042.00;5039504;28;20049;-33
2022/03/24 03:49:25;;;;;;;51.63;33.25;;;;;;;6.52;100.00;103039.66;5039165;28;20049;-27
2022/03/24 03:52:13;;;;;;;46.35;29.77;;;;;;;6.48;100.00;103045.88;5040677;28;20044;-35
2022/03/24 03:54:43;;;;;;;44.47;29.13;;;;;;;6.46;100.00;103043.31;5040669;28;20111;-28
2022/03/24 03:57:10;;;;;;;50.63;33.03;;;;;;;6.44;100.00;103034.34;5039820;28;20498;-34
2022/03/24 03:59:39;;;;;;;57.42;36.80;;;;;;;6.43;100.00;103038.19;5039785;28;20049;-28
2022/03/24 04:02:07;;;;;;;61.65;38.20;;;;;;;6.43;100.00;103042.88;5045100;28;20514;-32
2022/03/24 04:04:36;;;;;;;57.90;36.55;;;;;;;6.41;100.00;103040.34;5042760;28;20045;-30
2022/03/24 04:07:04;;;;;;;49.80;31.58;;;;;;;6.38;100.00;103046.34;5045666;28;20052;-31
2022/03/24 04:09:32;;;;;;;52.10;32.55;;;;;;;6.37;100.00;103043.78;5041669;28;20124;-32
2022/03/24 04:12:00;;;;;;;44.40;28.08;;;;;;;6.35;100.00;103044.00;5044883;28;20486;-36
2022/03/24 04:14:27;;;;;;;50.53;32.45;;;;;;;6.31;100.00;103042.72;5041349;28;20041;-33
2022/03/24 04:16:57;;;;;;;43.25;27.63;;;;;;;6.28;100.00;103048.69;5045422;28;20114;-35
2022/03/24 04:19:25;;;;;;;54.20;33.92;;;;;;;6.25;100.00;103048.28;5040670;28;20049;-30
2022/03/24 04:21:54;;;;;;;51.05;33.17;;;;;;;6.22;100.00;103041.25;5045826;28;20049;-27
2022/03/24 04:24:22;;;;;;;53.30;34.15;;;;;;;6.18;100.00;103051.09;5040982;28;20058;-36
2022/03/24 04:26:50;;;;;;;53.80;33.80;;;;;;;6.15;100.00;103037.66;5044981;28;20139;-27
2022/03/24 04:29:17;;;;;;;60.15;37.15;;;;;;;6.13;100.00;103039.78;5039500;28;20076;-30
2022/03/24 04:31:47;;;;;;;64.50;39.15;;;;;;;6.10;100.00;103040.22;5036381;28;20425;-34
2022/03/24 04:34:14;;;;;;;57.30;35.25;;;;;;;6.07;100.00;103043.41;5038252;28;20045;-33
2022/03/24 04:36:42;;;;;;;42.60;27.67;;;;;;;6.04;100.00;103041.91;5053030;28;20060;-33
2022/03/24 04:39:11;;;;;;;57.53;35.20;;;;;;;6.03;100.00;103040.22;5058312;28;20151;-31
2022/03/24 04:41:39;;;;;;;49.60;31.50;;;;;;;6.03;100.00;103036.59;5062647;28;20045;-27
2022/03/24 04:44:06;;;;;;;44.72;28.25;;;;;;;6.03;100.00;103039.34;5062090;28;20037;-33
2022/03/24 04:46:34;;;;;;;41.33;24.73;;;;;;;6.02;100.00;103041.28;5062855;28;20048;-30
2022/03/24 04:49:02;;;;;;;42.53;26.67;;;;;;;6.00;100.00;103042.56;5062114;28;20064;-31
2022/03/24 04:51:30;;;;;;;41.35;25.13;;;;;;;5.97;100.00;103038.31;5064116;28;20478;-32
2022/03/24 04:53:57;;;;;;;56.05;34.80;;;;;;;5.96;100.00;103041.31;5063284;28;20459;-30
2022/03/24 04:56:27;;;;;;;58.70;36.42;;;;;;;5.93;100.00;103050.03;5062644;28;20405;-34
2022/03/24 04:58:54;;;;;;;49.85;31.15;;;;;;;5.90;100.00;103054.09;5063513;28;20508;-28
2022/03/24 05:01:22;;;;;;;54.40;33.45;;;;;;;5.87;100.00;103052.56;5060912;28;20052;-30
2022/03/24 05:03:50;;;;;;;45.90;28.52;;;;;;;5.87;100.00;103049.78;5065158;28;20079;-30
2022/03/24 05:06:18;;;;;;;48.05;30.77;;;;;;;5.85;100.00;103051.94;5060136;28;20048;-27
2022/03/24 05:08:46;;;;;;;46.72;28.65;;;;;;;5.84;100.00;103047.44;5064467;28;20044;-30
2022/03/24 05:11:14;;;;;;;52.97;30.80;;;;;;;5.84;100.00;103052.13;5060622;28;20063;-34
2022/03/24 05:13:45;;;;;;;45.08;28.40;;;;;;;5.80;100.00;103048.94;5064664;28;20039;-31
2022/03/24 05:16:13;;;;;;;48.47;28.40;;;;;;;5.79;100.00;103046.41;5059827;28;20049;-32
2022/03/24 05:18:41;;;;;;;52.55;32.05;;;;;;;5.77;100.00;103054.09;5063465;28;20049;-30
2022/03/24 05:21:08;;;;;;;50.22;29.27;;;;;;;5.73;100.00;103050.03;5060130;28;20053;-27
2022/03/24 05:23:36;;;;;;;44.25;25.70;;;;;;;5.70;100.00;103050.44;5063836;28;20049;-35
2022/03/24 05:26:04;;;;;;;53.33;33.83;;;;;;;5.66;100.00;103043.63;5061254;28;20382;-34
2022/03/24 05:28:32;;;;;;;46.17;27.95;;;;;;;5.65;100.00;103047.44;5063384;28;20055;-33
2022/03/24 05:31:01;;;;;;;40.10;24.90;;;;;;;5.63;100.00;103036.59;5057935;28;20048;-32
2022/03/24 05:33:28;;;;;;;39.38;24.15;;;;;;;5.60;100.00;103042.53;5058731;28;20465;-27
2022/03/24 05:35:56;;;;;;;50.15;31.20;;;;;;;5.59;100.00;103046.41;5058484;28;20059;-34
2022/03/24 05:38:24;;;;;;;44.28;27.52;;;;;;;5.60;100.00;103041.69;5061773;28;20405;-30
2022/03/24 05:40:52;;;;;;;48.35;29.10;;;;;;;5.58;100.00;103052.16;5061073;28;20069;-32
2022/03/24 05:43:19;;;;;;;40.95;25.30;;;;;;;5.54;100.00;103043.41;5062039;28;20064;-30
2022/03/24 05:45:47;;;;;;;39.92;24.92;;;;;;;5.52;100.00;103054.72;5062744;28;20037;-29
2022/03/24 05:48:17;;;;;;;50.85;30.40;;;;;;;5.52;100.00;103045.53;5060928;28;20182;-32
2022/03/24 05:51:08;;;;;;;40.17;24.00;;;;;;;5.51;100.00;103046.59;5030540;28;20063;-35
2022/03/24 05:53:35;;;;;;;36.47;22.27;;;;;;;5.52;100.00;103049.16;5057374;28;20045;-31
2022/03/24 05:56:03;;;;;;;39.83;25.13;;;;;;;5.54;100.00;103051.72;5057104;28;20060;-30
2022/03/24 05:58:31;;;;;;;44.67;25.98;;;;;;;5.54;100.00;103048.97;5057394;28;20537;-32
2022/03/24 06:00:59;;;;;;;44.28;27.42;;;;;;;5.52;100.00;103049.16;5056659;28;20063;-38
2022/03/24 06:03:30;;;;;;;43.83;25.95;;;;;;;5.53;100.00;103048.09;5060251;28;20419;-40
2022/03/24 06:05:58;;;;;;;38.45;23.80;;;;;;;5.54;100.00;103048.97;5055922;28;20045;-36
2022/03/24 06:08:26;;;;;;;36.75;22.80;;;;;;;5.56;100.00;103048.75;5061265;28;20068;-31
2022/03/24 06:10:54;;;;;;;47.10;27.67;;;;;;;5.57;100.00;103047.69;5056507;28;20041;-35
2022/03/24 06:13:22;;;;;;;41.22;24.85;;;;;;;5.59;100.00;103051.94;5065193;28;20056;-34
2022/03/24 06:15:51;;;;;;;39.85;24.63;;;;;;;5.61;100.00;103055.34;5064126;28;20048;-30
2022/03/24 06:18:19;;;;;;;56.03;33.33;;;;;;;5.65;100.00;103050.22;5064081;28;20048;-30
2022/03/24 06:20:51;;;;;;;49.53;30.05;;;;;;;5.70;100.00;103058.75;5059766;28;20069;-29
2022/03/24 06:23:21;;;;;;;47.65;28.40;;;;;;;5.73;100.00;103048.09;5067352;28;20126;-34
2022/03/24 06:25:48;;;;;;;47.15;27.23;;;;;;;5.78;100.00;103062.19;5067218;28;20047;-32
2022/03/24 06:28:16;;;;;;;54.45;32.63;;;;;;;5.83;100.00;103065.13;5064463;28;20417;-32
2022/03/24 06:30:44;;;;;;;49.95;29.63;;;;;;;5.90;100.00;103069.88;5059957;28;20442;-33
2022/03/24 06:33:12;;;;;;;46.83;28.92;;;;;;;5.96;100.00;103069.03;5061804;28;20480;-30
2022/03/24 06:35:40;;;;;;;50.13;30.02;;;;;;;6.02;100.00;103062.59;5061462;28;20053;-31
2022/03/24 06:38:09;;;;;;;58.20;35.75;;;;;;;6.10;100.00;103067.94;5061996;28;20051;-36
2022/03/24 06:40:38;;;;;;;49.88;30.50;;;;;;;6.17;100.00;103069.63;5061032;28;20047;-28
2022/03/24 06:43:06;;;;;;;69.90;40.55;;;;;;;6.25;100.00;103067.69;5062966;28;20048;-30
2022/03/24 06:45:34;;;;;;;57.65;33.67;;;;;;;6.34;100.00;103070.03;5060860;28;20492;-30
2022/03/24 06:48:02;;;;;;;76.20;42.83;;;;;;;6.42;100.00;103075.31;5062047;28;20409;-33
2022/03/24 06:50:30;;;;;;;64.57;37.53;;;;;;;6.53;100.00;103069.09;5061567;28;20056;-36
2022/03/24 06:52:58;;;;;;;60.78;35.47;;;;;;;6.65;100.00;103068.41;5061330;28;20045;-27
2022/03/24 06:55:27;;;;;;;62.38;37.80;;;;;;;6.80;100.00;103066.22;5061564;28;20041;-29
2022/03/24 06:57:55;;;;;;;63.40;36.78;;;;;;;7.05;100.00;103069.09;5061158;28;20052;-30
2022/03/24 07:00:23;;;;;;;72.10;40.70;;;;;;;7.43;100.00;103067.16;5063819;28;20052;-28
2022/03/24 07:02:51;;;;;;;76.80;43.78;;;;;;;7.85;100.00;103068.31;5060088;28;20056;-33
2022/03/24 07:05:19;;;;;;;76.30;44.17;;;;;;;8.33;100.00;103075.19;5064616;28;20490;-32
2022/03/24 07:07:47;;;;;;;83.13;46.08;;;;;;;8.80;100.00;103074.38;5059956;28;20426;-32
2022/03/24 07:10:15;;;;;;;73.25;43.30;;;;;;;9.26;100.00;103071.00;5064736;28;20056;-33
2022/03/24 07:12:44;;;;;;;72.15;42.67;;;;;;;9.76;100.00;103073.44;5060182;28;20049;-36
2022/03/24 07:15:12;;;;;;;83.40;49.17;;;;;;;10.28;100.00;103070.84;5064247;28;20049;-32
2022/03/24 07:17:40;;;;;;;78.18;46.22;;;;;;;10.81;100.00;103069.78;5060223;28;20406;-36
2022/03/24 07:20:09;;;;;;;83.28;50.00;;;;;;;11.35;100.00;103076.75;5064393;28;20401;-33
2022/03/24 07:22:38;;;;;;;80.63;48.80;;;;;;;11.83;100.00;103079.06;5059319;28;20063;-31
2022/03/24 07:25:07;;;;;;;80.22;48.50;;;;;;;12.35;100.00;103073.19;5063849;28;20159;-36
2022/03/24 07:27:35;;;;;;;85.40;51.10;;;;;;;12.80;100.00;103078.56;5059982;28;20041;-32
2022/03/24 07:30:06;;;;;;;81.07;49.90;;;;;;;13.26;100.00;103082.81;5061209;28;20653;-28
2022/03/24 07:32:34;;;;;;;74.13;44.40;;;;;;;13.70;100.00;103091.13;5060810;28;20079;-39
2022/03/24 07:35:04;;;;;;;79.57;48.20;;;;;;;14.14;100.00;103084.22;5060642;28;20041;-31
2022/03/24 07:37:32;;;;;;;82.53;50.72;;;;;;;14.57;100.00;103085.13;5065390;28;20394;-28
2022/03/24 07:40:00;;;;;;;71.93;45.00;;;;;;;15.00;100.00;103088.69;5064601;28;20071;-34
2022/03/24 07:42:28;;;;;;;65.57;43.90;;;;;;;15.39;100.00;103089.09;5065567;28;20134;-29
2022/03/24 07:44:56;;;;;;;74.18;47.15;;;;;;;15.78;100.00;103097.94;5064327;28;20497;-36
2022/03/24 07:47:26;;;;;;;68.95;44.92;;;;;;;16.15;100.00;103092.03;5065278;28;20049;-30
2022/03/24 07:49:53;;;;;;;66.78;44.83;;;;;;;16.49;99.95;103095.09;5064732;28;20079;-35
2022/03/24 07:52:26;;;;;;;65.82;44.70;;;;;;;16.82;97.83;103097.28;5064792;28;20052;-31
2022/03/24 07:55:07;;;;;;;67.03;44.80;;;;;;;17.20;94.83;103094.84;5065418;28;20045;-30
2022/03/24 07:57:35;;;;;;;64.55;45.30;;;;;;;17.52;92.76;103100.91;5064607;28;20494;-36
2022/03/24 08:00:03;;;;;;;55.22;38.85;;;;;;;17.85;89.65;103092.78;5065070;28;20049;-33
2022/03/24 08:02:43;;;;;;;63.08;43.92;;;;;;;18.13;86.92;103103.31;5063336;28;20078;-35
2022/03/24 08:05:11;;;;;;;69.47;47.53;;;;;;;18.38;84.06;103095.75;5064544;28;20046;-32
2022/03/24 08:07:38;;;;;;;62.33;44.58;;;;;;;18.63;81.65;103098.31;5062743;28;20048;-38
2022/03/24 08:10:08;;;;;;;60.65;43.38;;;;;;;18.91;79.22;103093.75;5065703;28;20098;-31
2022/03/24 08:12:36;;;;;;;65.38;45.97;;;;;;;19.16;76.94;103101.09;5060861;28;20136;-33
2022/03/24 08:15:05;;;;;;;61.97;43.47;;;;;;;19.39;75.80;103093.66;5065848;28;20070;-35
2022/03/24 08:17:34;;;;;;;59.00;42.92;;;;;;;19.67;74.40;103106.06;5061248;28;20044;-29
2022/03/24 08:20:01;;;;;;;54.15;41.00;;;;;;;19.93;71.69;103101.69;5065381;28;20037;-36
2022/03/24 08:22:29;;;;;;;57.25;41.92;;;;;;;20.06;68.58;103103.72;5061099;28;20424;-40
2022/03/24 08:24:57;;;;;;;47.67;37.20;;;;;;;20.28;67.41;103100.22;5065368;28;20435;-33
2022/03/24 08:27:25;;;;;;;52.80;40.33;;;;;;;20.54;64.89;103104.31;5061231;28;20510;-37
2022/03/24 08:29:52;;;;;;;52.72;39.38;;;;;;;20.83;63.30;103103.16;5065311;28;20425;-34
2022/03/24 08:32:20;;;;;;;54.15;39.60;;;;;;;21.12;61.86;103111.38;5061306;28;20063;-37
2022/03/24 08:34:49;;;;;;;50.65;39.25;;;;;;;21.41;60.64;103111.03;5046497;28;20486;-37
2022/03/24 08:37:17;;;;;;;48.05;37.03;;;;;;;21.63;58.54;103106.25;5045275;28;20460;-34
2022/03/24 08:39:45;;;;;;;48.30;35.20;;;;;;;21.84;57.49;103105.78;5063823;28;20040;-32
2022/03/24 08:42:13;;;;;;;48.05;38.20;;;;;;;22.03;56.80;103117.00;5063604;28;20044;-35
2022/03/24 08:44:41;;;;;;;52.33;41.30;;;;;;;22.21;55.92;103108.25;5064928;28;20041;-33
2022/03/24 08:47:09;;;;;;;46.47;37.10;;;;;;;22.23;54.64;103110.78;5062657;28;20433;-32
2022/03/24 08:49:37;;;;;;;59.58;42.00;;;;;;;22.34;53.08;103106.53;5064322;28;20058;-38
2022/03/24 08:52:07;;;;;;;52.08;39.33;;;;;;;22.47;53.08;103111.28;5063929;28;20359;-33
2022/03/24 08:54:35;;;;;;;45.83;36.15;;;;;;;22.66;52.23;103117.59;5064091;28;20060;-33
2022/03/24 08:57:03;;;;;;;45.90;36.70;;;;;;;22.87;51.15;103117.88;5064306;28;20099;-31
2022/03/24 08:59:31;;;;;;;51.88;40.55;;;;;;;23.11;49.49;103110.94;5063009;28;20053;-31
2022/03/24 09:01:59;;;;;;;45.53;36.53;;;;;;;23.31;48.28;103113.16;5064395;28;20053;-31
2022/03/24 09:04:27;;;;;;;47.58;38.00;;;;;;;23.47;46.86;103111.53;5060864;28;20052;-33
2022/03/24 09:06:55;;;;;;;46.47;35.40;;;;;;;23.67;46.94;103115.78;5064823;28;20045;-32
2022/03/24 09:09:24;;;;;;;43.75;34.83;;;;;;;23.89;45.15;103112.75;5060097;28;20366;-35
2022/03/24 09:11:52;;;;;;;40.10;32.08;;;;;;;24.11;44.26;103114.59;5064808;28;20087;-30
2022/03/24 09:14:20;;;;;;;41.35;33.15;;;;;;;24.30;42.84;103122.81;5059886;28;20135;-35
2022/03/24 09:16:47;;;;;;;40.42;33.00;;;;;;;24.44;42.88;103114.91;5065004;28;20464;-37
2022/03/24 09:19:16;;;;;;;40.15;34.05;;;;;;;24.59;42.17;103122.06;5042063;28;20140;-35
2022/03/24 09:21:44;;;;;;;42.80;34.80;;;;;;;24.74;41.21;103127.25;5064051;28;20044;-30
2022/03/24 09:24:12;;;;;;;42.03;31.88;;;;;;;24.82;40.69;103128.38;5060309;28;20045;-33
2022/03/24 09:26:41;;;;;;;36.67;30.98;;;;;;;24.92;39.74;103126.00;5064435;28;20076;-38
2022/03/24 09:29:10;;;;;;;45.13;35.25;;;;;;;25.02;39.47;103121.94;5061088;28;20414;-35
2022/03/24 09:31:37;;;;;;;42.05;34.35;;;;;;;25.10;38.56;103128.81;5063657;28;20508;-32
2022/03/24 09:34:05;;;;;;;37.05;31.48;;;;;;;25.18;38.15;103134.47;5058697;28;20365;-39
2022/03/24 09:36:35;;;;;;;41.72;33.33;;;;;;;25.29;38.48;103129.19;5058015;28;20059;-33
2022/03/24 09:39:03;;;;;;;38.92;33.33;;;;;;;25.42;37.91;103134.66;5060094;28;20047;-32
2022/03/24 09:41:32;;;;;;;36.67;31.35;;;;;;;25.50;36.90;103132.94;5064196;28;20060;-34
2022/03/24 09:44:01;;;;;;;38.28;30.77;;;;;;;25.53;36.03;103137.97;5050627;28;20045;-36
2022/03/24 09:46:29;;;;;;;36.20;29.15;;;;;;;25.63;36.11;103131.03;5064279;28;20048;-30
2022/03/24 09:48:59;;;;;;;36.47;29.98;;;;;;;25.69;34.55;103136.19;5067758;28;20044;-35
2022/03/24 09:51:27;;;;;;;31.40;26.30;;;;;;;25.70;34.81;103134.19;5067096;28;20049;-34
2022/03/24 09:53:55;;;;;;;37.95;30.98;;;;;;;25.82;34.96;103127.69;5067766;28;20051;-30
2022/03/24 09:56:23;;;;;;;38.53;32.95;;;;;;;25.94;34.60;103125.75;5066240;28;20048;-34
2022/03/24 09:58:51;;;;;;;42.10;34.13;;;;;;;26.06;33.93;103128.66;5067974;28;20524;-32
2022/03/24 10:01:20;;;;;;;43.88;34.67;;;;;;;26.05;33.84;103129.00;5046310;28;20044;-31
2022/03/24 10:04:03;;;;;;;43.53;36.08;;;;;;;25.97;32.33;103127.06;5067789;28;20049;-30
2022/03/24 10:06:31;;;;;;;40.05;32.75;;;;;;;25.85;34.05;103124.13;5064237;28;20470;-32
2022/03/24 10:08:59;;;;;;;34.60;29.85;;;;;;;25.89;33.82;103120.22;5067711;28;20044;-31
2022/03/24 10:11:28;;;;;;;35.88;28.70;;;;;;;25.94;32.98;103122.88;5063045;28;20067;-31
2022/03/24 10:13:58;;;;;;;32.83;27.77;;;;;;;25.90;32.99;103129.66;5067849;28;20413;-33
2022/03/24 10:16:43;;;;;;;33.92;28.13;;;;;;;26.00;31.43;103132.91;5045553;28;20139;-30
2022/03/24 10:19:14;;;;;;;28.70;23.85;;;;;;;26.02;32.24;103126.84;5067682;28;20040;-30
2022/03/24 10:21:44;;;;;;;30.40;24.33;;;;;;;26.07;31.30;103129.47;5063098;28;20143;-36
2022/03/24 10:24:15;;;;;;;31.05;26.55;;;;;;;26.16;30.78;103133.13;5067812;28;20097;-33
2022/03/24 10:26:44;;;;;;;33.22;27.33;;;;;;;25.99;30.38;103122.66;5062700;28;20044;-33
2022/03/24 10:29:25;;;;;;;30.73;25.63;;;;;;;26.03;28.70;103129.34;5067666;28;20052;-30
2022/03/24 10:31:56;;;;;;;30.63;25.50;;;;;;;26.06;29.99;103128.66;5062638;28;20401;-29
2022/03/24 10:34:30;;;;;;;26.05;22.33;;;;;;;26.09;30.48;103127.13;5067550;28;20054;-31
2022/03/24 10:37:02;;;;;;;27.08;23.08;;;;;;;26.20;30.47;103128.34;5062967;28;20048;-29
2022/03/24 10:39:30;;;;;;;29.75;25.33;;;;;;;26.32;30.08;103127.59;5067197;28;20040;-31
2022/03/24 10:42:12;;;;;;;29.98;25.85;;;;;;;26.38;27.94;103129.03;5063238;28;20052;-30
2022/03/24 10:45:02;;;;;;;26.27;22.15;;;;;;;26.34;28.81;103128.94;5049499;28;20075;-31
2022/03/24 10:47:39;;;;;;;28.38;23.08;;;;;;;26.38;29.02;103129.03;5062252;28;20433;-30
2022/03/24 10:50:39;;;;;;;29.15;24.23;;;;;;;26.40;28.72;103127.50;5067130;28;20050;-30
2022/03/24 10:53:09;;;;;;;29.58;24.33;;;;;;;26.33;29.61;103124.38;4987681;28;20088;-29
2022/03/24 10:55:54;;;;;;;27.10;23.77;;;;;;;26.24;26.96;103123.59;5050798;28;20044;-33
2022/03/24 10:58:27;;;;;;;26.90;21.88;;;;;;;26.14;28.90;103126.91;5063826;28;20146;-39
2022/03/24 11:00:58;;;;;;;23.55;20.33;;;;;;;26.19;28.78;103125.81;5066752;28;20056;-29
2022/03/24 11:03:27;;;;;;;28.02;22.95;;;;;;;26.31;28.03;103120.19;5063353;28;20041;-31
2022/03/24 11:06:12;;;;;;;25.70;21.80;;;;;;;26.32;26.82;103117.00;5067046;28;20049;-29
2022/03/24 11:08:42;;;;;;;26.60;21.05;;;;;;;26.25;27.59;103119.53;5063267;28;20045;-38
2022/03/24 11:11:12;;;;;;;26.05;20.58;;;;;;;26.24;26.34;103117.03;5065963;28;20048;-34
2022/03/24 11:13:43;;;;;;;26.10;20.30;;;;;;;26.12;25.88;103114.97;5062239;28;20037;-36
2022/03/24 11:16:12;;;;;;;26.40;21.33;;;;;;;26.01;26.17;103110.84;5066924;28;20106;-31
2022/03/24 11:18:42;;;;;;;21.42;19.13;;;;;;;26.01;26.12;103108.00;5062392;28;20049;-32